Time;durP1;ratioP1;P1;durP2;ratioP2;P2;SDS_P1;SDS_P2;PMS_P1;PMS_P2;Temp;Humidity;BMP_temperature;BMP_pressure;BME280_temperature;BME280_humidity;BME280_pressure;Samples;Min_cycle;Max_cycle;Signal;HPM_P1;HPM_P2
2023/04/02 00:01:18;;;;;;;;;;;7.10;99.90;;;;;;4919171;29;20380;-80
2023/04/02 00:04:02;;;;;;;;;;;7.00;99.90;;;;;;4935292;29;19933;-80
2023/04/02 00:06:38;;;;;;;;;;;7.00;99.90;;;;;;4933889;29;19930;-77
2023/04/02 00:09:17;;;;;;;;;;;7.00;99.90;;;;;;4931272;29;19926;-78
2023/04/02 00:11:45;;;;;;;;;;;6.90;99.90;;;;;;4914425;29;19927;-78
2023/04/02 00:14:14;;;;;;;;;;;6.80;99.90;;;;;;4947078;29;19969;-78
2023/04/02 00:16:41;;;;;;;;;;;6.70;99.90;;;;;;4930787;29;19989;-78
2023/04/02 00:19:12;;;;;;;;;;;6.70;99.90;;;;;;4933228;29;19945;-78
2023/04/02 00:21:42;;;;;;;;;;;6.70;99.90;;;;;;4937197;29;20432;-78
2023/04/02 00:24:13;;;;;;;;;;;6.70;99.90;;;;;;4934950;29;19966;-79
2023/04/02 00:26:43;;;;;;;;;;;6.70;99.90;;;;;;4933622;29;19923;-79
2023/04/02 00:29:11;;;;;;;;;;;6.70;99.90;;;;;;4939536;28;20009;-78
2023/04/02 00:31:40;;;;;;;;;;;6.70;99.90;;;;;;4950863;29;19926;-80
2023/04/02 00:34:08;;;;;;;;;;;6.60;99.90;;;;;;4923805;29;19933;-78
2023/04/02 00:36:35;;;;;;;;;;;6.60;99.90;;;;;;4934111;29;20296;-78
2023/04/02 00:39:06;;;;;;;;;;;6.60;99.90;;;;;;4945309;23;19930;-78
2023/04/02 00:41:34;;;;;;;;;;;6.60;99.90;;;;;;4946018;29;20342;-79
2023/04/02 00:44:01;;;;;;;;;;;6.50;99.90;;;;;;4926979;29;19954;-78
2023/04/02 00:46:31;;;;;;;;;;;6.50;99.90;;;;;;4943762;29;20298;-78
2023/04/02 00:48:59;;;;;;;;;;;6.50;99.90;;;;;;4910022;29;19934;-79
2023/04/02 00:51:29;;;;;;;;;;;6.50;99.90;;;;;;4914313;29;20290;-78
2023/04/02 00:53:57;;;;;;;;;;;6.40;99.90;;;;;;4914252;29;19930;-79
2023/04/02 00:56:27;;;;;;;;;;;6.40;99.90;;;;;;4920340;29;19930;-79
2023/04/02 00:58:55;;;;;;;;;;;6.40;99.90;;;;;;4928411;29;20409;-79
2023/04/02 01:01:23;;;;;;;;;;;6.40;99.90;;;;;;4923524;29;19927;-77
2023/04/02 01:03:56;;;;;;;;;;;6.30;99.90;;;;;;4924093;29;19942;-78
2023/04/02 01:06:28;;;;;;;;;;;6.20;99.90;;;;;;4911839;29;19923;-78
2023/04/02 01:09:01;;;;;;;;;;;6.20;99.90;;;;;;4916791;29;19923;-78
2023/04/02 01:11:36;;;;;;;;;;;6.10;99.90;;;;;;4914069;29;19934;-77
2023/04/02 01:14:08;;;;;;;;;;;6.10;99.90;;;;;;4922650;29;19938;-78
2023/04/02 01:16:41;;;;;;;;;;;6.10;99.90;;;;;;4907354;29;19931;-80
2023/04/02 01:19:18;;;;;;;;;;;6.10;99.90;;;;;;4913982;29;19927;-78
2023/04/02 01:21:54;;;;;;;;;;;6.10;99.90;;;;;;4912808;29;19927;-78
2023/04/02 01:24:21;;;;;;;;;;;6.10;99.90;;;;;;4913817;29;19927;-79
2023/04/02 01:26:56;;;;;;;;;;;5.90;99.90;;;;;;4913195;29;19938;-79
2023/04/02 01:29:26;;;;;;;;;;;6.00;99.90;;;;;;4912881;29;20413;-79
2023/04/02 01:31:54;;;;;;;;;;;5.90;99.90;;;;;;4912618;29;19942;-80
2023/04/02 01:34:23;;;;;;;;;;;6.20;99.90;;;;;;4913546;29;20010;-79
2023/04/02 01:36:59;;;;;;;;;;;6.40;99.90;;;;;;4914292;29;19962;-78
2023/04/02 01:39:33;;;;;;;;;;;5.80;99.90;;;;;;4918374;29;19939;-79
2023/04/02 01:42:04;;;;;;;;;;;5.80;99.90;;;;;;4924339;29;19923;-79
2023/04/02 01:44:35;;;;;;;;;;;5.80;99.90;;;;;;4898046;29;19927;-79
2023/04/02 01:47:05;;;;;;;;;;;5.80;99.90;;;;;;4923066;29;19930;-79
2023/04/02 01:49:32;;;;;;;;;;;5.70;99.90;;;;;;4928164;29;19966;-78
2023/04/02 01:51:59;;;;;;;;;;;5.80;99.90;;;;;;4927169;29;19958;-78
2023/04/02 01:54:31;;;;;;;;;;;5.70;99.90;;;;;;4930187;29;20138;-79
2023/04/02 01:56:58;;;;;;;;;;;5.80;99.90;;;;;;4910204;29;19923;-79
2023/04/02 01:59:25;;;;;;;;;;;5.80;99.90;;;;;;4917854;29;19934;-79
2023/04/02 02:02:01;;;;;;;;;;;5.80;99.90;;;;;;4900324;29;19938;-79
2023/04/02 02:04:28;;;;;;;;;;;5.80;99.90;;;;;;4915284;29;19927;-78
2023/04/02 02:06:57;;;;;;;;;;;5.80;99.90;;;;;;4912399;29;20017;-79
2023/04/02 02:09:26;;;;;;;;;;;5.70;99.90;;;;;;4919575;29;20519;-79
2023/04/02 02:11:53;;;;;;;;;;;5.70;99.90;;;;;;4924310;29;20034;-79
2023/04/02 02:14:21;;;;;;;;;;;5.70;99.90;;;;;;4917289;29;19930;-79
2023/04/02 02:16:48;;;;;;;;;;;5.70;99.90;;;;;;4912886;29;20487;-79
2023/04/02 02:19:21;;;;;;;;;;;5.80;99.90;;;;;;4926595;29;19985;-79
2023/04/02 02:21:50;;;;;;;;;;;5.70;99.90;;;;;;4895972;29;19928;-79
2023/04/02 02:24:19;;;;;;;;;;;5.70;99.90;;;;;;4908092;29;20467;-80
2023/04/02 02:26:48;;;;;;;;;;;5.60;99.90;;;;;;4919886;29;20000;-79
2023/04/02 02:29:17;;;;;;;;;;;5.60;99.90;;;;;;4913369;29;19958;-80
2023/04/02 02:31:46;;;;;;;;;;;5.50;99.90;;;;;;4907632;29;19953;-80
2023/04/02 02:34:16;;;;;;;;;;;5.50;99.90;;;;;;4902382;29;19962;-80
2023/04/02 02:36:49;;;;;;;;;;;5.50;99.90;;;;;;4923812;29;19926;-79
2023/04/02 02:39:20;;;;;;;;;;;5.40;99.90;;;;;;4918411;29;20305;-80
2023/04/02 02:41:51;;;;;;;;;;;5.40;99.90;;;;;;4920820;29;20030;-80
2023/04/02 02:44:19;;;;;;;;;;;5.40;99.90;;;;;;4914481;29;19927;-79
2023/04/02 02:46:49;;;;;;;;;;;5.30;99.90;;;;;;4918700;29;20100;-80
2023/04/02 02:49:19;;;;;;;;;;;5.40;99.90;;;;;;4914561;29;19927;-80
2023/04/02 02:51:52;;;;;;;;;;;5.40;99.90;;;;;;4914750;29;20044;-79
2023/04/02 02:54:29;;;;;;;;;;;5.40;99.90;;;;;;4932217;29;19953;-84
2023/04/02 02:56:57;;;;;;;;;;;5.40;99.90;;;;;;4919572;29;19934;-80
2023/04/02 02:59:24;;;;;;;;;;;5.50;99.90;;;;;;4927890;29;19926;-81
2023/04/02 03:01:52;;;;;;;;;;;5.50;99.90;;;;;;4929798;29;20330;-81
2023/04/02 03:04:22;;;;;;;;;;;5.50;99.90;;;;;;4916861;29;20025;-80
2023/04/02 03:06:52;;;;;;;;;;;5.50;99.90;;;;;;4919782;29;19966;-81
2023/04/02 03:09:26;;;;;;;;;;;5.60;99.90;;;;;;4915467;29;19923;-80
2023/04/02 03:11:55;;;;;;;;;;;5.70;99.90;;;;;;4924028;29;19994;-80
2023/04/02 03:14:28;;;;;;;;;;;5.60;99.90;;;;;;4935770;29;19990;-82
2023/04/02 03:16:58;;;;;;;;;;;5.60;99.90;;;;;;4904063;29;20030;-80
2023/04/02 03:19:29;;;;;;;;;;;5.70;99.90;;;;;;4915796;29;19931;-81
2023/04/02 03:22:01;;;;;;;;;;;5.70;99.90;;;;;;4915318;29;19923;-81
2023/04/02 03:24:32;;;;;;;;;;;5.60;99.90;;;;;;4931755;29;19933;-80
2023/04/02 03:27:01;;;;;;;;;;;5.60;99.90;;;;;;4933997;29;20013;-81
2023/04/02 03:29:29;;;;;;;;;;;5.60;99.90;;;;;;4934979;29;20325;-82
2023/04/02 03:31:57;;;;;;;;;;;5.70;99.90;;;;;;4938763;29;20016;-83
2023/04/02 03:34:28;;;;;;;;;;;5.60;99.90;;;;;;4932859;29;19933;-81
2023/04/02 03:36:58;;;;;;;;;;;5.60;99.90;;;;;;4921180;29;19934;-80
2023/04/02 03:39:30;;;;;;;;;;;5.60;99.90;;;;;;4940736;29;19958;-82
2023/04/02 03:41:58;;;;;;;;;;;5.50;99.90;;;;;;4932766;29;20449;-80
2023/04/02 03:44:27;;;;;;;;;;;5.50;99.90;;;;;;4935980;29;19945;-80
2023/04/02 03:46:57;;;;;;;;;;;5.50;99.90;;;;;;4915253;29;19927;-80
2023/04/02 03:49:29;;;;;;;;;;;5.40;99.90;;;;;;4914340;29;20314;-80
2023/04/02 03:52:00;;;;;;;;;;;5.30;99.90;;;;;;4914248;29;19923;-81
2023/04/02 03:54:27;;;;;;;;;;;5.40;99.90;;;;;;4910647;29;19934;-80
2023/04/02 03:56:54;;;;;;;;;;;5.40;99.90;;;;;;4924271;29;19929;-81
2023/04/02 03:59:27;;;;;;;;;;;5.30;99.90;;;;;;4922697;29;19933;-80
2023/04/02 04:01:57;;;;;;;;;;;5.20;99.90;;;;;;4929632;29;19933;-80
2023/04/02 04:04:26;;;;;;;;;;;5.20;99.90;;;;;;4923792;29;19927;-80
2023/04/02 04:06:53;;;;;;;;;;;5.20;99.90;;;;;;4911606;29;19926;-80
2023/04/02 04:09:23;;;;;;;;;;;5.20;99.90;;;;;;4912193;29;19927;-79
2023/04/02 04:11:51;;;;;;;;;;;5.20;99.90;;;;;;4924969;29;19927;-80
2023/04/02 04:14:20;;;;;;;;;;;5.10;99.90;;;;;;4928090;29;19926;-82
2023/04/02 04:16:52;;;;;;;;;;;5.10;99.90;;;;;;4914565;29;20048;-80
2023/04/02 04:19:22;;;;;;;;;;;5.10;99.90;;;;;;4923294;29;19945;-82
2023/04/02 04:21:52;;;;;;;;;;;5.10;99.90;;;;;;4913937;29;19931;-80
2023/04/02 04:24:25;;;;;;;;;;;5.10;99.90;;;;;;4914492;29;19966;-80
2023/04/02 04:27:02;;;;;;;;;;;5.10;99.90;;;;;;4933443;29;19933;-82
2023/04/02 04:29:37;;;;;;;;;;;5.10;99.90;;;;;;4922269;29;20853;-82
2023/04/02 04:32:25;;;;;;;;;;;5.10;99.90;;;;;;4923801;29;19964;-80
2023/04/02 04:34:56;;;;;;;;;;;5.20;99.90;;;;;;4911374;29;19923;-80
2023/04/02 04:37:32;;;;;;;;;;;5.20;99.90;;;;;;4917752;29;19938;-80
2023/04/02 04:40:04;;;;;;;;;;;5.20;99.90;;;;;;4917241;29;19923;-82
2023/04/02 04:42:33;;;;;;;;;;;5.20;99.90;;;;;;4915193;29;20270;-81
2023/04/02 04:45:01;;;;;;;;;;;5.20;99.90;;;;;;4914238;29;19931;-79
2023/04/02 04:47:29;;;;;;;;;;;5.20;99.90;;;;;;4913764;29;19933;-80
2023/04/02 04:50:00;;;;;;;;;;;5.20;99.90;;;;;;4914649;29;19923;-80
2023/04/02 04:52:29;;;;;;;;;;;5.20;99.90;;;;;;4914978;29;19922;-79
2023/04/02 04:54:56;;;;;;;;;;;5.10;99.90;;;;;;4927019;29;19927;-80
2023/04/02 04:57:30;;;;;;;;;;;5.20;99.90;;;;;;4930881;29;19926;-82
2023/04/02 04:59:59;;;;;;;;;;;5.20;99.90;;;;;;4926240;29;19982;-80
2023/04/02 05:02:31;;;;;;;;;;;5.20;99.90;;;;;;4919926;29;20423;-79
2023/04/02 05:04:59;;;;;;;;;;;5.20;99.90;;;;;;4926792;29;19927;-80
2023/04/02 05:07:28;;;;;;;;;;;5.10;99.90;;;;;;4924472;29;19923;-79
2023/04/02 05:09:57;;;;;;;;;;;5.10;99.90;;;;;;4916637;29;19982;-81
2023/04/02 05:12:30;;;;;;;;;;;5.10;99.90;;;;;;4915928;29;19934;-81
2023/04/02 05:15:01;;;;;;;;;;;5.00;99.90;;;;;;4932176;29;19922;-81
2023/04/02 05:17:30;;;;;;;;;;;5.00;99.90;;;;;;4932458;29;19923;-80
2023/04/02 05:20:00;;;;;;;;;;;4.90;99.90;;;;;;4922829;29;20381;-81
2023/04/02 05:22:30;;;;;;;;;;;4.90;99.90;;;;;;4919634;29;20362;-81
2023/04/02 05:25:07;;;;;;;;;;;4.90;99.90;;;;;;4932692;29;19942;-82
2023/04/02 05:27:37;;;;;;;;;;;4.90;99.90;;;;;;4927155;29;19933;-80
2023/04/02 05:30:14;;;;;;;;;;;4.70;99.90;;;;;;4933200;29;20411;-80
2023/04/02 05:32:43;;;;;;;;;;;3.70;99.90;;;;;;4929888;29;19927;-80
2023/04/02 05:35:15;;;;;;;;;;;4.70;99.90;;;;;;4939542;29;19926;-81
2023/04/02 05:37:43;;;;;;;;;;;4.70;99.90;;;;;;4931358;29;19931;-81
2023/04/02 05:40:13;;;;;;;;;;;4.70;99.90;;;;;;4940744;29;19954;-82
2023/04/02 05:42:43;;;;;;;;;;;4.70;99.90;;;;;;4942500;29;19934;-82
2023/04/02 05:45:17;;;;;;;;;;;4.70;99.90;;;;;;4930965;29;19942;-81
2023/04/02 05:47:48;;;;;;;;;;;4.80;99.90;;;;;;4932164;29;20047;-82
2023/04/02 05:50:24;;;;;;;;;;;4.80;99.90;;;;;;4933933;29;20283;-83
2023/04/02 05:52:53;;;;;;;;;;;4.80;99.90;;;;;;4930424;29;19927;-82
2023/04/02 05:55:28;;;;;;;;;;;4.70;99.90;;;;;;4944997;29;20009;-82
2023/04/02 05:58:00;;;;;;;;;;;4.80;99.90;;;;;;4933702;29;19954;-81
2023/04/02 06:00:41;;;;;;;;;;;4.80;99.90;;;;;;4930773;29;20003;-82
2023/04/02 06:03:16;;;;;;;;;;;4.90;99.90;;;;;;4941662;29;19927;-78
2023/04/02 06:05:44;;;;;;;;;;;5.00;99.90;;;;;;4949608;29;19994;-79
2023/04/02 06:08:14;;;;;;;;;;;5.00;99.90;;;;;;4925689;29;19990;-79
2023/04/02 06:10:45;;;;;;;;;;;4.90;99.90;;;;;;4926036;29;19923;-81
2023/04/02 06:13:15;;;;;;;;;;;4.90;99.90;;;;;;4947505;29;19922;-81
2023/04/02 06:15:45;;;;;;;;;;;4.90;99.90;;;;;;4926461;29;19927;-81
2023/04/02 06:18:19;;;;;;;;;;;5.00;99.90;;;;;;4922709;29;19923;-79
2023/04/02 06:20:47;;;;;;;;;;;4.90;99.90;;;;;;4941317;29;20309;-80
2023/04/02 06:23:18;;;;;;;;;;;4.90;99.90;;;;;;4924032;29;20173;-81
2023/04/02 06:25:49;;;;;;;;;;;5.00;99.90;;;;;;4931082;29;19950;-81
2023/04/02 06:28:18;;;;;;;;;;;5.00;99.90;;;;;;4923804;29;19962;-81
2023/04/02 06:30:59;;;;;;;;;;;5.00;99.90;;;;;;4927972;29;19935;-82
2023/04/02 06:33:26;;;;;;;;;;;5.00;99.90;;;;;;4920280;29;19965;-82
2023/04/02 06:35:54;;;;;;;;;;;5.00;99.90;;;;;;4919694;29;19922;-82
2023/04/02 06:38:29;;;;;;;;;;;4.90;99.90;;;;;;4915035;29;20366;-82
2023/04/02 06:40:57;;;;;;;;;;;4.90;99.90;;;;;;4923528;29;19926;-82
2023/04/02 06:43:39;;;;;;;;;;;4.90;99.90;;;;;;4920415;29;19934;-81
2023/04/02 06:46:22;;;;;;;;;;;4.90;99.90;;;;;;4898020;29;19923;-85
2023/04/02 06:49:10;;;;;;;;;;;4.90;99.90;;;;;;4942248;29;19923;-85
2023/04/02 06:51:38;;;;;;;;;;;4.90;99.90;;;;;;4919638;29;19931;-84
2023/04/02 06:54:05;;;;;;;;;;;4.90;99.90;;;;;;4922951;29;19935;-84
2023/04/02 06:56:38;;;;;;;;;;;5.00;99.90;;;;;;4924045;29;19964;-84
2023/04/02 06:59:06;;;;;;;;;;;5.00;99.90;;;;;;4922516;29;20447;-83
2023/04/02 07:01:37;;;;;;;;;;;5.10;99.90;;;;;;4925454;29;19978;-82
2023/04/02 07:04:08;;;;;;;;;;;5.20;99.90;;;;;;4919224;29;19960;-81
2023/04/02 07:06:43;;;;;;;;;;;5.20;99.90;;;;;;4900070;29;19927;-82
2023/04/02 07:09:12;;;;;;;;;;;5.20;99.90;;;;;;4935296;29;19923;-81
2023/04/02 07:11:43;;;;;;;;;;;5.20;99.90;;;;;;4936311;29;19919;-81
2023/04/02 07:14:11;;;;;;;;;;;5.10;99.90;;;;;;4956650;28;19938;-81
2023/04/02 07:16:40;;;;;;;;;;;5.10;99.90;;;;;;4920162;29;20385;-82
2023/04/02 07:19:14;;;;;;;;;;;5.10;99.90;;;;;;4919352;29;19962;-81
2023/04/02 07:21:41;;;;;;;;;;;5.10;99.90;;;;;;4925764;29;20021;-82
2023/04/02 07:24:08;;;;;;;;;;;5.30;99.90;;;;;;4918214;29;19931;-83
2023/04/02 07:26:35;;;;;;;;;;;5.30;99.90;;;;;;4935410;29;20131;-82
2023/04/02 07:29:01;;;;;;;;;;;5.40;99.90;;;;;;4926536;29;19931;-83
2023/04/02 07:31:29;;;;;;;;;;;5.50;99.90;;;;;;4925698;29;19935;-81
2023/04/02 07:33:58;;;;;;;;;;;5.60;99.90;;;;;;4927769;29;19930;-81
2023/04/02 07:36:27;;;;;;;;;;;5.70;99.90;;;;;;4924888;29;19969;-81
2023/04/02 07:38:54;;;;;;;;;;;5.70;99.90;;;;;;4919029;29;20132;-81
2023/04/02 07:41:22;;;;;;;;;;;5.70;99.90;;;;;;4931978;29;19911;-81
2023/04/02 07:43:48;;;;;;;;;;;5.70;99.90;;;;;;4933698;29;19958;-81
2023/04/02 07:46:17;;;;;;;;;;;5.70;99.90;;;;;;4927553;29;19949;-81
2023/04/02 07:48:45;;;;;;;;;;;5.60;99.90;;;;;;4936337;29;19930;-81
2023/04/02 07:51:17;;;;;;;;;;;5.50;99.90;;;;;;4931372;29;19926;-81
2023/04/02 07:53:44;;;;;;;;;;;5.50;99.90;;;;;;4947340;29;20009;-81
2023/04/02 07:56:16;;;;;;;;;;;5.50;99.90;;;;;;4934963;29;19958;-81
2023/04/02 07:58:44;;;;;;;;;;;5.50;99.90;;;;;;4929970;29;19991;-81
2023/04/02 08:01:15;;;;;;;;;;;5.50;99.90;;;;;;4960417;29;19927;-81
2023/04/02 08:03:42;;;;;;;;;;;5.50;99.90;;;;;;4935387;29;20779;-81
2023/04/02 08:06:10;;;;;;;;;;;5.60;99.90;;;;;;4938277;29;19926;-81
2023/04/02 08:08:39;;;;;;;;;;;5.70;99.90;;;;;;4932924;29;20033;-80
2023/04/02 08:11:05;;;;;;;;;;;5.70;99.90;;;;;;4924206;29;19919;-81
2023/04/02 08:13:32;;;;;;;;;;;5.60;99.90;;;;;;4934675;29;19926;-81
2023/04/02 08:16:00;;;;;;;;;;;5.60;99.90;;;;;;4932245;29;19927;-81
2023/04/02 08:18:27;;;;;;;;;;;5.50;99.90;;;;;;4925728;29;20421;-83
2023/04/02 08:20:54;;;;;;;;;;;5.50;99.90;;;;;;4944720;29;20448;-82
2023/04/02 08:23:21;;;;;;;;;;;5.40;99.90;;;;;;4928403;29;19950;-86
2023/04/02 08:25:52;;;;;;;;;;;5.40;99.90;;;;;;4922671;29;20061;-85
2023/04/02 08:28:20;;;;;;;;;;;5.40;99.90;;;;;;4934946;29;19919;-88
2023/04/02 08:30:47;;;;;;;;;;;5.40;99.90;;;;;;4945466;29;19923;-85
2023/04/02 08:33:15;;;;;;;;;;;5.40;99.90;;;;;;4931233;29;20002;-85
2023/04/02 08:35:45;;;;;;;;;;;6.30;99.90;;;;;;4923092;29;19955;-85
2023/04/02 08:38:14;;;;;;;;;;;5.50;99.90;;;;;;4946395;29;19930;-85
2023/04/02 08:40:42;;;;;;;;;;;5.70;99.90;;;;;;4944327;29;19950;-85
2023/04/02 08:43:23;;;;;;;;;;;6.10;99.90;;;;;;4947254;29;20010;-85
2023/04/02 08:45:59;;;;;;;;;;;5.70;99.90;;;;;;4937912;29;19938;-86
2023/04/02 08:48:33;;;;;;;;;;;5.70;99.90;;;;;;4941714;29;20391;-88
2023/04/02 08:51:03;;;;;;;;;;;5.80;99.90;;;;;;4940048;29;19950;-87
2023/04/02 08:53:35;;;;;;;;;;;5.90;99.90;;;;;;4928575;29;19969;-84
2023/04/02 08:56:07;;;;;;;;;;;6.00;99.90;;;;;;4936614;29;19983;-85
2023/04/02 08:58:43;;;;;;;;;;;6.20;99.90;;;;;;4932843;29;19995;-85
2023/04/02 09:01:15;;;;;;;;;;;6.40;99.90;;;;;;4914746;29;19933;-86
2023/04/02 09:03:45;;;;;;;;;;;6.50;99.90;;;;;;4920766;29;19954;-86
2023/04/02 09:06:13;;;;;;;;;;;6.50;99.90;;;;;;4922120;29;19927;-85
2023/04/02 09:08:43;;;;;;;;;;;6.60;99.90;;;;;;4934309;29;19915;-88
2023/04/02 09:11:16;;;;;;;;;;;6.70;99.90;;;;;;4922343;29;19923;-85
2023/04/02 09:13:46;;;;;;;;;;;6.70;99.90;;;;;;4920693;29;19955;-86
2023/04/02 09:16:14;;;;;;;;;;;6.70;99.90;;;;;;4928330;29;19933;-85
2023/04/02 09:18:42;;;;;;;;;;;6.70;99.90;;;;;;4917863;29;19923;-86
2023/04/02 09:21:20;;;;;;;;;;;6.80;99.90;;;;;;4911171;29;20434;-86
2023/04/02 09:23:49;;;;;;;;;;;6.80;99.90;;;;;;4956053;29;19923;-85
2023/04/02 09:26:21;;;;;;;;;;;6.80;99.90;;;;;;4930377;29;19958;-85
2023/04/02 09:28:50;;;;;;;;;;;6.90;99.90;;;;;;4930006;29;19950;-87
2023/04/02 09:31:19;;;;;;;;;;;6.80;99.90;;;;;;4943950;29;19939;-84
2023/04/02 09:33:47;;;;;;;;;;;7.00;99.90;;;;;;4938095;29;19934;-85
2023/04/02 09:36:18;;;;;;;;;;;7.10;99.90;;;;;;4935047;29;19926;-82
2023/04/02 09:38:56;;;;;;;;;;;7.10;99.90;;;;;;4931089;29;19923;-83
2023/04/02 09:41:26;;;;;;;;;;;7.10;99.90;;;;;;4923721;29;19934;-83
2023/04/02 09:44:10;;;;;;;;;;;7.10;99.90;;;;;;4931377;29;20341;-82
2023/04/02 09:46:37;;;;;;;;;;;7.20;99.90;;;;;;4921734;29;19923;-82
2023/04/02 09:49:04;;;;;;;;;;;7.20;99.90;;;;;;4918094;29;19967;-83
2023/04/02 09:51:33;;;;;;;;;;;7.30;99.90;;;;;;4921016;29;19927;-84
2023/04/02 09:54:07;;;;;;;;;;;7.30;99.90;;;;;;4920382;29;20459;-84
2023/04/02 09:56:35;;;;;;;;;;;7.30;99.90;;;;;;4921299;29;19929;-84
2023/04/02 09:59:04;;;;;;;;;;;7.40;99.90;;;;;;4919331;29;19923;-82
2023/04/02 10:01:32;;;;;;;;;;;7.40;99.90;;;;;;4919020;29;19926;-83
2023/04/02 10:04:00;;;;;;;;;;;7.40;99.90;;;;;;4918316;29;19966;-83
2023/04/02 10:06:27;;;;;;;;;;;7.50;99.90;;;;;;4918009;29;19923;-82
2023/04/02 10:08:54;;;;;;;;;;;7.70;99.90;;;;;;4916368;29;19923;-82
2023/04/02 10:11:23;;;;;;;;;;;7.80;99.90;;;;;;4918199;29;19974;-83
2023/04/02 10:13:53;;;;;;;;;;;7.60;99.90;;;;;;4924123;29;19979;-83
2023/04/02 10:16:24;;;;;;;;;;;7.50;99.90;;;;;;4930951;29;19938;-82
2023/04/02 10:18:53;;;;;;;;;;;7.50;99.90;;;;;;4928161;29;19929;-83
2023/04/02 10:21:23;;;;;;;;;;;7.40;99.90;;;;;;4919865;29;20030;-83
2023/04/02 10:23:50;;;;;;;;;;;7.30;99.90;;;;;;4926042;29;19934;-82
2023/04/02 10:26:20;;;;;;;;;;;7.40;99.90;;;;;;4924431;29;19930;-83
2023/04/02 10:28:54;;;;;;;;;;;7.50;99.90;;;;;;4914176;29;19991;-83
2023/04/02 10:31:24;;;;;;;;;;;7.60;99.90;;;;;;4916422;29;19938;-83
2023/04/02 10:33:51;;;;;;;;;;;7.70;99.90;;;;;;4920706;29;19962;-83
2023/04/02 10:36:23;;;;;;;;;;;7.70;99.90;;;;;;4923515;29;19923;-82
2023/04/02 10:38:51;;;;;;;;;;;7.70;99.90;;;;;;4918900;29;19955;-83
2023/04/02 10:41:22;;;;;;;;;;;7.90;99.90;;;;;;4949884;29;19911;-84
2023/04/02 10:44:07;;;;;;;;;;;8.00;99.90;;;;;;4925760;29;19942;-83
2023/04/02 10:46:38;;;;;;;;;;;8.20;99.90;;;;;;4934934;29;19930;-85
2023/04/02 10:49:10;;;;;;;;;;;8.30;99.90;;;;;;4952708;29;19919;-85
2023/04/02 10:51:39;;;;;;;;;;;9.10;99.90;;;;;;4934962;29;19987;-85
2023/04/02 10:54:17;;;;;;;;;;;8.20;99.90;;;;;;4933346;29;19927;-84
2023/04/02 10:56:49;;;;;;;;;;;8.10;99.90;;;;;;4925230;29;19923;-86
2023/04/02 10:59:18;;;;;;;;;;;8.00;99.90;;;;;;4918413;29;20040;-86
2023/04/02 11:01:51;;;;;;;;;;;7.80;99.90;;;;;;4930469;29;19998;-86
2023/04/02 11:04:19;;;;;;;;;;;7.70;99.90;;;;;;4922688;29;19923;-88
2023/04/02 11:06:48;;;;;;;;;;;7.80;99.90;;;;;;4922429;29;19931;-85
2023/04/02 11:09:21;;;;;;;;;;;7.90;99.90;;;;;;4921799;29;19975;-87
2023/04/02 11:11:51;;;;;;;;;;;7.70;99.90;;;;;;4928708;29;20052;-87
2023/04/02 11:14:21;;;;;;;;;;;7.60;99.90;;;;;;4927429;29;19951;-87
2023/04/02 11:16:49;;;;;;;;;;;7.60;99.90;;;;;;4925587;29;19935;-86
2023/04/02 11:19:26;;;;;;;;;;;7.60;99.90;;;;;;4924930;29;19927;-84
2023/04/02 11:21:55;;;;;;;;;;;7.40;99.90;;;;;;4926643;29;20393;-85
2023/04/02 11:24:40;;;;;;;;;;;7.30;99.90;;;;;;4928702;29;19930;-85
2023/04/02 11:27:15;;;;;;;;;;;7.20;99.90;;;;;;4924827;29;19955;-86
2023/04/02 11:29:44;;;;;;;;;;;7.20;99.90;;;;;;4937915;29;20198;-85
2023/04/02 11:32:26;;;;;;;;;;;7.30;99.90;;;;;;4920754;29;19927;-88
2023/04/02 11:35:20;;;;;;;;;;;7.40;99.90;;;;;;4923127;29;19927;-85
2023/04/02 11:37:48;;;;;;;;;;;7.60;99.90;;;;;;4916698;29;19994;-85
2023/04/02 11:40:33;;;;;;;;;;;7.80;99.90;;;;;;4919604;29;19927;-86
2023/04/02 11:43:26;;;;;;;;;;;8.00;99.90;;;;;;4922945;29;19927;-85
2023/04/02 11:45:57;;;;;;;;;;;8.20;99.90;;;;;;4921461;29;19927;-85
2023/04/02 11:48:30;;;;;;;;;;;8.30;99.90;;;;;;4919998;29;20340;-85
2023/04/02 11:50:57;;;;;;;;;;;8.20;99.90;;;;;;4937265;29;19965;-85
2023/04/02 11:53:26;;;;;;;;;;;8.20;99.90;;;;;;4930080;29;20300;-85
2023/04/02 11:56:07;;;;;;;;;;;8.20;99.90;;;;;;4951103;29;19923;-88
2023/04/02 11:58:40;;;;;;;;;;;8.20;99.90;;;;;;4919090;29;19928;-85
2023/04/02 12:01:29;;;;;;;;;;;8.30;99.90;;;;;;4926016;29;20025;-85
2023/04/02 12:04:06;;;;;;;;;;;8.50;99.90;;;;;;4925119;29;19946;-86
2023/04/02 12:06:38;;;;;;;;;;;8.60;99.90;;;;;;4925429;29;19924;-87
2023/04/02 12:09:11;;;;;;;;;;;8.60;99.90;;;;;;4934764;29;19950;-85
2023/04/02 12:11:39;;;;;;;;;;;8.70;99.90;;;;;;4922243;29;19926;-86
2023/04/02 12:14:26;;;;;;;;;;;8.70;99.90;;;;;;4939796;23;19930;-80
2023/04/02 12:16:55;;;;;;;;;;;8.60;99.90;;;;;;4947053;29;19933;-80
2023/04/02 12:19:22;;;;;;;;;;;8.90;99.90;;;;;;4942004;29;20510;-81
2023/04/02 12:21:51;;;;;;;;;;;9.00;99.90;;;;;;4941223;29;20404;-81
2023/04/02 12:24:20;;;;;;;;;;;9.10;99.90;;;;;;4922389;29;20025;-81
2023/04/02 12:26:46;;;;;;;;;;;9.20;99.90;;;;;;4924024;29;20100;-81
2023/04/02 12:29:17;;;;;;;;;;;9.10;99.90;;;;;;4938850;29;19927;-80
2023/04/02 12:31:45;;;;;;;;;;;8.90;99.90;;;;;;5536380;23;19962;-81
2023/04/02 12:34:16;;;;;;;;;;;8.70;99.90;;;;;;4975102;28;19933;-81
2023/04/02 12:36:51;;;;;;;;;;;8.60;99.90;;;;;;4980676;28;19926;-82
2023/04/02 12:39:18;;;;;;;;;;;8.40;99.90;;;;;;4976141;28;19929;-82
2023/04/02 12:41:45;;;;;;;;;;;8.30;99.90;;;;;;4984834;28;20031;-82
2023/04/02 12:44:15;;;;;;;;;;;8.60;99.90;;;;;;4992091;28;19946;-82
2023/04/02 12:46:42;;;;;;;;;;;8.80;99.90;;;;;;5006440;28;19945;-82
2023/04/02 12:49:13;;;;;;;;;;;8.90;99.90;;;;;;4991061;28;19926;-81
2023/04/02 12:51:56;;;;;;;;;;;8.80;99.90;;;;;;5102610;23;19921;-83
2023/04/02 12:54:36;;;;;;;;;;;8.90;99.90;;;;;;4998690;28;19922;-82
2023/04/02 12:57:29;;;;;;;;;;;8.90;99.90;;;;;;5002506;28;19922;-83
2023/04/02 13:00:15;;;;;;;;;;;9.00;99.90;;;;;;4990067;28;19977;-84
2023/04/02 13:03:21;;;;;;;;;;;9.20;99.90;;;;;;4971670;28;19911;-85
2023/04/02 13:09:10;;;;;;;;;;;9.20;99.90;;;;;;4972628;28;19943;-83
2023/04/02 13:11:58;;;;;;;;;;;8.80;99.90;;;;;;4975703;28;19977;-83
2023/04/02 13:14:32;;;;;;;;;;;8.90;99.90;;;;;;4974857;28;19993;-84
2023/04/02 13:20:37;;;;;;;;;;;8.90;99.90;;;;;;4974283;28;19938;-83
2023/04/02 13:23:48;;;;;;;;;;;9.00;99.90;;;;;;4989270;28;19997;-82
2023/04/02 13:26:30;;;;;;;;;;;8.90;99.90;;;;;;4973086;28;19922;-84
2023/04/02 13:29:23;;;;;;;;;;;8.90;99.90;;;;;;4972848;28;19923;-84
2023/04/02 13:31:59;;;;;;;;;;;9.00;99.90;;;;;;4973601;28;19926;-84
2023/04/02 13:34:37;;;;;;;;;;;9.00;99.90;;;;;;4986170;28;19930;-83
2023/04/02 13:37:21;;;;;;;;;;;8.80;99.90;;;;;;4985338;28;19929;-84
2023/04/02 13:40:03;;;;;;;;;;;8.70;99.90;;;;;;4994620;28;19936;-84
2023/04/02 13:42:39;;;;;;;;;;;8.50;99.90;;;;;;4956100;28;19926;-84
2023/04/02 13:45:26;;;;;;;;;;;8.40;99.90;;;;;;4956125;28;20000;-84
2023/04/02 13:48:00;;;;;;;;;;;8.50;99.90;;;;;;4961119;28;19926;-84
2023/04/02 13:50:33;;;;;;;;;;;8.60;99.90;;;;;;4995725;23;19925;-74
2023/04/02 13:53:07;;;;;;;;;;;8.80;99.90;;;;;;4975552;28;19926;-84
2023/04/02 13:55:38;;;;;;;;;;;9.00;99.90;;;;;;4984218;28;19973;-82
2023/04/02 14:16:11;;;;;;;;;;;9.50;99.90;;;;;;4860032;29;19910;-83
2023/04/02 14:19:00;;;;;;;;;;;9.50;99.90;;;;;;4845993;29;19924;-85
2023/04/02 14:21:40;;;;;;;;;;;9.80;99.90;;;;;;4900547;29;19911;-86
2023/04/02 14:27:13;;;;;;;;;;;10.10;99.90;;;;;;4973030;29;19963;-85
2023/04/02 14:29:51;;;;;;;;;;;10.30;99.90;;;;;;4961907;28;19933;-84
2023/04/02 14:32:33;;;;;;;;;;;10.40;99.90;;;;;;4959646;28;19930;-84
2023/04/02 14:35:26;;;;;;;;;;;10.50;99.90;;;;;;4962219;28;19976;-83
2023/04/02 14:38:15;;;;;;;;;;;;;;;;;;;;;
2023/04/02 14:40:57;;;;;;;;;;;10.70;99.90;;;;;;4956960;29;19931;-86
2023/04/02 14:43:39;;;;;;;;;;;10.70;99.90;;;;;;4999409;23;19926;-76
2023/04/02 14:46:10;;;;;;;;;;;10.70;99.90;;;;;;4960343;28;19954;-76
2023/04/02 14:48:43;;;;;;;;;;;10.60;99.90;;;;;;4979373;28;19933;-76
2023/04/02 14:51:14;;;;;;;;;;;10.60;99.90;;;;;;4985714;28;19910;-75
2023/04/02 14:53:48;;;;;;;;;;;10.60;99.90;;;;;;4954615;29;19937;-76
2023/04/02 14:56:16;;;;;;;;;;;10.60;99.90;;;;;;4958910;29;20163;-76
2023/04/02 14:58:45;;;;;;;;;;;10.60;99.90;;;;;;4947998;29;19981;-76
2023/04/02 15:01:14;;;;;;;;;;;10.60;99.90;;;;;;4945580;28;20375;-76
2023/04/02 15:03:43;;;;;;;;;;;10.70;99.90;;;;;;4940528;28;19926;-76
2023/04/02 15:06:17;;;;;;;;;;;10.80;99.90;;;;;;4960085;28;19929;-77
2023/04/02 15:08:47;;;;;;;;;;;10.80;99.90;;;;;;4958916;29;19930;-79
2023/04/02 15:11:18;;;;;;;;;;;10.70;99.90;;;;;;4953021;28;19964;-77
2023/04/02 15:13:48;;;;;;;;;;;10.50;99.90;;;;;;4941455;29;19929;-78
2023/04/02 15:16:18;;;;;;;;;;;10.20;99.90;;;;;;4957112;29;19930;-76
2023/04/02 15:18:46;;;;;;;;;;;10.00;99.90;;;;;;4940692;29;19922;-76
2023/04/02 15:21:31;;;;;;;;;;;10.00;99.90;;;;;;4960750;28;19930;-77
2023/04/02 15:24:03;;;;;;;;;;;10.00;99.90;;;;;;4944410;29;19922;-77
2023/04/02 15:26:40;;;;;;;;;;;9.80;99.90;;;;;;4944061;29;19923;-77